createdAt,value
2022-12-18T00:01:34.236Z,90.92
2022-12-18T00:04:06.695Z,90.80
2022-12-18T00:06:35.826Z,90.83
2022-12-18T00:09:05.487Z,90.82
2022-12-18T00:11:34.016Z,90.50
2022-12-18T00:14:02.213Z,90.43
2022-12-18T00:16:31.939Z,90.44
2022-12-18T00:19:00.344Z,90.39
2022-12-18T00:21:29.474Z,90.30
2022-12-18T00:23:58.033Z,90.39
2022-12-18T00:26:29.552Z,90.26
2022-12-18T00:29:00.789Z,90.53
2022-12-18T00:31:29.543Z,90.64
2022-12-18T00:33:58.426Z,90.75
2022-12-18T00:36:28.659Z,90.56
2022-12-18T00:38:57.748Z,90.68
2022-12-18T00:41:44.765Z,90.89
2022-12-18T00:44:14.743Z,91.01
2022-12-18T00:46:43.291Z,91.28
2022-12-18T00:49:14.191Z,91.16
2022-12-18T00:51:42.438Z,91.25
2022-12-18T00:54:10.921Z,91.17
2022-12-18T00:56:48.301Z,91.27
2022-12-18T00:59:17.302Z,91.05
2022-12-18T01:01:45.832Z,90.73
2022-12-18T01:04:14.156Z,90.70
2022-12-18T01:06:42.400Z,90.42
2022-12-18T01:09:10.437Z,90.36
2022-12-18T01:11:40.064Z,90.31
2022-12-18T01:14:08.383Z,90.37
2022-12-18T01:16:36.461Z,90.45
2022-12-18T01:19:04.649Z,90.39
2022-12-18T01:21:32.748Z,90.58
2022-12-18T01:24:00.989Z,90.87
2022-12-18T01:26:30.548Z,90.90
2022-12-18T01:29:00.491Z,90.99
2022-12-18T01:31:30.296Z,90.97
2022-12-18T01:33:59.432Z,91.25
2022-12-18T01:36:29.493Z,90.87
2022-12-18T01:38:58.296Z,90.88
2022-12-18T01:41:48.305Z,90.84
2022-12-18T01:44:49.396Z,90.70
2022-12-18T01:47:23.892Z,90.38
2022-12-18T01:49:52.443Z,90.56
2022-12-18T01:52:21.101Z,90.59
2022-12-18T01:54:49.650Z,90.58
2022-12-18T01:57:18.033Z,90.69
2022-12-18T01:59:49.610Z,90.59
2022-12-18T02:02:19.896Z,90.70
2022-12-18T02:04:49.654Z,90.39
2022-12-18T02:07:24.706Z,90.58
2022-12-18T02:09:56.259Z,90.58
2022-12-18T02:12:26.496Z,90.53
2022-12-18T02:15:00.910Z,90.54
2022-12-18T02:17:34.919Z,90.79
2022-12-18T02:20:10.523Z,90.73
2022-12-18T02:22:46.774Z,90.88
2022-12-18T02:25:24.666Z,90.65
2022-12-18T02:27:55.137Z,90.80
2022-12-18T02:30:23.763Z,90.60
2022-12-18T02:32:54.280Z,90.71
2022-12-18T02:35:25.908Z,90.85
2022-12-18T02:37:58.628Z,90.62
2022-12-18T02:40:28.291Z,90.58
2022-12-18T02:42:57.739Z,90.54
2022-12-18T02:45:25.753Z,90.54
2022-12-18T02:47:53.809Z,90.50
2022-12-18T02:50:28.439Z,90.42
2022-12-18T02:53:03.098Z,90.46
2022-12-18T02:55:41.625Z,90.38
2022-12-18T02:58:16.469Z,90.23
2022-12-18T03:00:50.171Z,90.31
2022-12-18T03:03:21.765Z,90.14
2022-12-18T03:05:52.685Z,90.27
2022-12-18T03:08:23.839Z,90.24
2022-12-18T03:10:55.784Z,90.31
2022-12-18T03:13:32.361Z,90.34
2022-12-18T03:16:01.705Z,90.49
2022-12-18T03:18:35.673Z,90.52
2022-12-18T03:21:07.250Z,90.52
2022-12-18T03:23:39.272Z,90.40
2022-12-18T03:26:10.034Z,90.34
2022-12-18T03:28:42.158Z,90.27
2022-12-18T03:31:12.198Z,90.33
2022-12-18T03:33:43.305Z,90.35
2022-12-18T03:36:11.627Z,90.60
2022-12-18T03:38:39.977Z,90.41
2022-12-18T03:41:13.713Z,90.58
2022-12-18T03:43:47.860Z,90.49
2022-12-18T03:46:22.402Z,90.51
2022-12-18T03:48:58.176Z,90.38
2022-12-18T03:51:30.753Z,90.40
2022-12-18T03:54:00.823Z,90.42
2022-12-18T03:56:31.658Z,90.37
2022-12-18T03:59:02.571Z,90.45
2022-12-18T04:01:33.912Z,90.48
2022-12-18T04:04:03.662Z,90.38
2022-12-18T04:06:32.456Z,90.51
2022-12-18T04:09:00.679Z,90.58
2022-12-18T04:11:28.865Z,90.60
2022-12-18T04:13:58.263Z,90.47
2022-12-18T04:16:27.945Z,90.61
2022-12-18T04:18:56.084Z,90.60
2022-12-18T04:21:24.401Z,90.64
2022-12-18T04:23:52.478Z,90.64
2022-12-18T04:26:20.511Z,90.56
2022-12-18T04:28:48.597Z,90.52
2022-12-18T04:31:16.667Z,90.34
2022-12-18T04:33:46.140Z,90.40
2022-12-18T04:36:14.454Z,90.46
2022-12-18T04:38:42.539Z,90.19
2022-12-18T04:41:10.570Z,90.40
2022-12-18T04:43:38.976Z,90.34
2022-12-18T04:46:08.710Z,90.50
2022-12-18T04:48:38.856Z,90.16
2022-12-18T04:51:09.161Z,90.25
2022-12-18T04:53:37.619Z,90.21
2022-12-18T04:56:08.191Z,90.16
2022-12-18T04:58:36.407Z,90.02
2022-12-18T05:01:04.917Z,89.96
2022-12-18T05:03:33.067Z,89.92
2022-12-18T05:06:01.224Z,89.86
2022-12-18T05:08:30.677Z,89.90
2022-12-18T05:11:02.150Z,89.91
2022-12-18T05:13:30.505Z,89.87
2022-12-18T05:15:58.780Z,89.78
2022-12-18T05:18:27.698Z,89.92
2022-12-18T05:20:56.041Z,89.72
2022-12-18T05:23:25.049Z,89.72
2022-12-18T05:25:55.528Z,89.74
2022-12-18T05:28:24.793Z,89.76
2022-12-18T05:30:53.806Z,89.74
2022-12-18T05:33:22.870Z,89.87
2022-12-18T05:35:53.632Z,89.76
2022-12-18T05:38:22.029Z,89.69
2022-12-18T05:40:50.613Z,89.61
2022-12-18T05:43:21.656Z,89.73
2022-12-18T05:45:50.311Z,89.77
2022-12-18T05:48:18.841Z,90.02
2022-12-18T05:50:48.233Z,90.09
2022-12-18T05:53:18.669Z,90.00
2022-12-18T05:55:46.797Z,90.04
2022-12-18T05:58:15.336Z,89.83
2022-12-18T06:00:46.970Z,89.72
2022-12-18T06:03:15.551Z,89.80
2022-12-18T06:05:46.120Z,89.99
2022-12-18T06:08:14.844Z,89.70
2022-12-18T06:10:43.405Z,89.73
2022-12-18T06:13:11.434Z,89.71
2022-12-18T06:15:39.980Z,89.75
2022-12-18T06:18:09.415Z,89.52
2022-12-18T06:20:40.535Z,89.34
2022-12-18T06:23:08.606Z,89.24
2022-12-18T06:25:39.780Z,89.44
2022-12-18T06:28:07.849Z,89.39
2022-12-18T06:30:37.286Z,89.60
2022-12-18T06:33:05.465Z,89.24
2022-12-18T06:35:35.309Z,89.28
2022-12-18T06:38:03.584Z,89.32
2022-12-18T06:40:31.772Z,89.30
2022-12-18T06:42:59.833Z,89.32
2022-12-18T06:45:27.922Z,89.23
2022-12-18T06:47:56.493Z,89.46
2022-12-18T06:50:25.839Z,89.41
2022-12-18T06:52:55.287Z,89.40
2022-12-18T06:55:23.370Z,89.45
2022-12-18T06:57:51.426Z,89.48
2022-12-18T07:00:20.180Z,89.25
2022-12-18T07:02:48.368Z,89.28
2022-12-18T07:05:16.592Z,89.31
2022-12-18T07:07:44.644Z,89.28
2022-12-18T07:10:14.091Z,89.25
2022-12-18T07:12:42.223Z,89.32
2022-12-18T07:15:11.090Z,89.30
2022-12-18T07:17:39.135Z,89.34
2022-12-18T07:20:08.165Z,89.28
2022-12-18T07:22:36.248Z,89.38
2022-12-18T07:25:04.510Z,89.63
2022-12-18T07:27:33.983Z,89.48
2022-12-18T07:30:02.313Z,89.51
2022-12-18T07:32:30.381Z,89.49
2022-12-18T07:34:58.400Z,89.32
2022-12-18T07:37:26.484Z,89.46
2022-12-18T07:39:54.553Z,89.27
2022-12-18T07:42:34.446Z,89.14
2022-12-18T07:45:04.656Z,89.21
2022-12-18T07:47:35.665Z,89.19
2022-12-18T07:50:04.135Z,89.13
2022-12-18T07:52:32.196Z,89.26
2022-12-18T07:55:01.195Z,89.28
2022-12-18T08:00:19.372Z,89.51
2022-12-18T08:02:47.507Z,89.70
2022-12-18T08:05:17.042Z,89.66
2022-12-18T08:07:45.127Z,89.37
2022-12-18T08:10:13.158Z,89.55
2022-12-18T08:12:41.232Z,89.58
2022-12-18T08:15:10.025Z,89.63
2022-12-18T08:17:39.492Z,89.62
2022-12-18T08:20:08.535Z,89.58
2022-12-18T08:22:39.868Z,89.57
2022-12-18T08:25:09.002Z,89.73
2022-12-18T08:27:37.112Z,89.56
2022-12-18T08:30:05.958Z,89.40
2022-12-18T08:32:35.387Z,89.64
2022-12-18T08:35:05.290Z,89.73
2022-12-18T08:37:33.406Z,89.55
2022-12-18T08:40:01.848Z,89.40
2022-12-18T08:42:47.193Z,89.50
2022-12-18T08:45:16.146Z,89.23
2022-12-18T08:47:44.529Z,89.25
2022-12-18T08:50:14.143Z,89.38
2022-12-18T08:52:42.182Z,89.18
2022-12-18T08:55:11.455Z,89.31
2022-12-18T08:57:39.493Z,89.18
2022-12-18T09:00:09.068Z,89.18
2022-12-18T09:02:37.246Z,89.10
2022-12-18T09:05:05.899Z,89.23
2022-12-18T09:07:35.380Z,89.07
2022-12-18T09:10:03.488Z,89.09
2022-12-18T09:12:31.553Z,89.00
2022-12-18T09:14:59.682Z,89.24
2022-12-18T09:17:27.762Z,89.04
2022-12-18T09:19:55.938Z,88.97
2022-12-18T09:22:24.039Z,89.02
2022-12-18T09:24:53.461Z,89.10
2022-12-18T09:27:21.537Z,89.30
2022-12-18T09:29:49.613Z,89.00
2022-12-18T09:32:22.208Z,88.88
2022-12-18T09:34:50.675Z,89.22
2022-12-18T09:37:18.752Z,89.24
2022-12-18T09:39:46.803Z,88.97
2022-12-18T09:42:21.869Z,89.17
2022-12-18T09:44:52.679Z,88.66
2022-12-18T09:47:25.568Z,89.03
2022-12-18T09:49:56.527Z,88.84
2022-12-18T09:52:29.403Z,88.65
2022-12-18T09:55:02.627Z,88.48
2022-12-18T09:57:35.455Z,88.52
2022-12-18T10:00:08.731Z,87.73
2022-12-18T10:02:37.018Z,88.09
2022-12-18T10:05:11.640Z,88.30
2022-12-18T10:07:49.742Z,88.03
2022-12-18T10:10:29.203Z,86.97
2022-12-18T10:13:05.473Z,87.23
2022-12-18T10:15:38.425Z,87.25
2022-12-18T10:18:21.884Z,87.42
2022-12-18T10:20:54.146Z,87.50
2022-12-18T10:23:27.295Z,88.05
2022-12-18T10:25:57.601Z,87.92
2022-12-18T10:28:27.252Z,87.88
2022-12-18T10:30:55.383Z,87.76
2022-12-18T10:33:25.401Z,87.99
2022-12-18T10:35:53.875Z,88.03
2022-12-18T10:38:27.736Z,87.37
2022-12-18T10:40:57.726Z,86.88
2022-12-18T10:43:28.915Z,86.94
2022-12-18T10:46:07.842Z,86.69
2022-12-18T10:48:38.261Z,86.94
2022-12-18T10:51:13.338Z,86.60
2022-12-18T10:53:43.926Z,86.48
2022-12-18T10:56:12.727Z,85.66
2022-12-18T10:58:42.591Z,86.29
2022-12-18T11:01:13.147Z,86.54
2022-12-18T11:03:43.360Z,86.21
2022-12-18T11:06:13.642Z,86.44
2022-12-18T11:08:43.405Z,85.99
2022-12-18T11:11:21.324Z,85.69
2022-12-18T11:14:00.695Z,86.39
2022-12-18T11:16:29.873Z,86.34
2022-12-18T11:19:10.308Z,86.67
2022-12-18T11:21:42.338Z,86.34
2022-12-18T11:24:21.496Z,85.69
2022-12-18T11:26:54.898Z,86.15
2022-12-18T11:29:33.510Z,85.53
2022-12-18T11:32:36.182Z,85.77
2022-12-18T11:35:12.904Z,86.04
2022-12-18T11:37:43.365Z,85.86
2022-12-18T11:40:18.181Z,86.15
2022-12-18T11:42:50.414Z,85.83
2022-12-18T11:45:30.106Z,86.30
2022-12-18T11:48:05.597Z,86.30
2022-12-18T11:50:45.131Z,85.77
2022-12-18T11:53:14.184Z,85.72
2022-12-18T11:55:49.598Z,85.96
2022-12-18T11:58:31.359Z,85.99
2022-12-18T12:01:08.472Z,86.42
2022-12-18T12:03:51.332Z,84.95
2022-12-18T12:06:25.630Z,85.48
2022-12-18T12:09:04.282Z,85.49
2022-12-18T12:11:41.587Z,85.54
2022-12-18T12:14:22.873Z,85.31
2022-12-18T12:16:57.263Z,84.96
2022-12-18T12:19:36.848Z,84.97
2022-12-18T12:22:10.454Z,85.62
2022-12-18T12:24:47.540Z,85.82
2022-12-18T12:27:24.924Z,85.61
2022-12-18T12:30:02.964Z,85.48
2022-12-18T12:32:43.700Z,85.81
2022-12-18T12:35:22.833Z,85.69
2022-12-18T12:37:56.974Z,85.67
2022-12-18T12:43:26.823Z,85.98
2022-12-18T12:45:57.541Z,85.60
2022-12-18T12:48:37.093Z,85.62
2022-12-18T12:51:10.766Z,85.77
2022-12-18T12:53:41.109Z,85.47
2022-12-18T12:56:13.528Z,85.36
2022-12-18T12:58:49.100Z,85.55
2022-12-18T13:01:27.096Z,85.65
2022-12-18T13:04:04.396Z,85.88
2022-12-18T13:06:44.559Z,85.98
2022-12-18T13:09:12.969Z,85.34
2022-12-18T13:12:00.600Z,85.24
2022-12-18T13:14:32.039Z,85.76
2022-12-18T13:17:34.352Z,86.05
2022-12-18T13:20:13.219Z,85.46
2022-12-18T13:22:45.244Z,85.61
2022-12-18T13:25:33.614Z,85.61
2022-12-18T13:28:09.339Z,85.49
2022-12-18T13:30:55.480Z,85.32
2022-12-18T13:36:41.729Z,85.16
2022-12-18T13:39:29.969Z,84.60
2022-12-18T13:42:57.184Z,85.57
2022-12-18T13:45:47.458Z,85.82
2022-12-18T13:48:21.298Z,85.42
2022-12-18T13:50:58.629Z,85.58
2022-12-18T13:53:31.687Z,85.87
2022-12-18T13:56:00.315Z,86.10
2022-12-18T13:58:28.623Z,86.18
2022-12-18T14:00:57.694Z,86.29
2022-12-18T14:03:28.419Z,86.09
2022-12-18T14:06:00.315Z,85.61
2022-12-18T14:08:34.674Z,86.13
2022-12-18T14:11:03.345Z,86.29
2022-12-18T14:13:34.967Z,86.56
2022-12-18T14:16:04.851Z,86.35
2022-12-18T14:18:41.050Z,86.24
2022-12-18T14:21:18.976Z,86.29
2022-12-18T14:23:48.827Z,86.44
2022-12-18T14:26:26.331Z,86.46
2022-12-18T14:28:55.547Z,86.53
2022-12-18T14:31:25.597Z,86.47
2022-12-18T14:33:54.292Z,86.04
2022-12-18T14:36:24.154Z,86.11
2022-12-18T14:38:55.696Z,86.09
2022-12-18T14:41:24.707Z,86.15
2022-12-18T14:43:55.054Z,85.96
2022-12-18T14:46:36.441Z,86.35
2022-12-18T14:49:06.737Z,85.94
2022-12-18T14:51:36.113Z,86.35
2022-12-18T14:54:09.217Z,86.42
2022-12-18T14:56:38.607Z,86.52
2022-12-18T14:59:08.276Z,86.63
2022-12-18T15:01:39.475Z,86.53
2022-12-18T15:04:25.396Z,86.57
2022-12-18T15:07:09.943Z,86.69
2022-12-18T15:09:40.173Z,86.68
2022-12-18T15:12:26.304Z,86.74
2022-12-18T15:14:54.864Z,86.78
2022-12-18T15:17:26.808Z,86.96
2022-12-18T15:20:01.390Z,86.83
2022-12-18T15:22:31.674Z,86.86
2022-12-18T15:25:01.287Z,87.09
2022-12-18T15:27:32.882Z,87.23
2022-12-18T15:30:20.284Z,87.01
2022-12-18T15:32:49.852Z,87.02
2022-12-18T15:35:21.444Z,87.01
2022-12-18T15:37:49.714Z,87.16
2022-12-18T15:40:20.870Z,87.29
2022-12-18T15:43:07.249Z,87.25
2022-12-18T15:45:35.675Z,86.90
2022-12-18T15:48:07.464Z,87.12
2022-12-18T15:50:35.544Z,87.29
2022-12-18T15:53:03.661Z,87.20
2022-12-18T15:55:55.331Z,87.41
2022-12-18T15:58:27.414Z,87.33
2022-12-18T16:00:56.633Z,87.41
2022-12-18T16:03:24.767Z,87.38
2022-12-18T16:05:54.335Z,87.68
2022-12-18T16:08:22.465Z,87.55
2022-12-18T16:10:51.895Z,87.74
2022-12-18T16:13:21.251Z,87.69
2022-12-18T16:15:49.396Z,87.71
2022-12-18T16:18:17.508Z,87.94
2022-12-18T16:20:45.636Z,88.12
2022-12-18T16:23:13.687Z,87.91
2022-12-18T16:25:41.758Z,88.18
2022-12-18T16:28:11.211Z,88.12
2022-12-18T16:30:39.396Z,88.12
2022-12-18T16:33:07.721Z,88.08
2022-12-18T16:35:38.068Z,88.14
2022-12-18T16:38:06.586Z,88.40
2022-12-18T16:40:54.869Z,88.08
2022-12-18T16:43:24.309Z,88.04
2022-12-18T16:45:52.460Z,88.09
2022-12-18T16:48:20.531Z,88.29
2022-12-18T16:50:48.570Z,88.42
2022-12-18T16:53:16.651Z,88.37
2022-12-18T16:55:44.878Z,88.14
2022-12-18T16:58:12.975Z,88.20
2022-12-18T17:00:42.398Z,88.05
2022-12-18T17:03:10.629Z,88.22
2022-12-18T17:05:40.240Z,88.14
2022-12-18T17:08:08.320Z,88.10
2022-12-18T17:10:36.940Z,88.21
2022-12-18T17:13:04.971Z,88.33
2022-12-18T17:15:36.241Z,88.33
2022-12-18T17:18:05.741Z,88.36
2022-12-18T17:20:33.802Z,88.18
2022-12-18T17:23:01.964Z,88.38
2022-12-18T17:25:31.002Z,88.42
2022-12-18T17:27:59.055Z,88.39
2022-12-18T17:30:27.100Z,88.35
2022-12-18T17:32:55.221Z,88.66
2022-12-18T17:35:24.668Z,88.71
2022-12-18T17:37:52.750Z,88.45
2022-12-18T17:40:20.775Z,88.55
2022-12-18T17:42:48.821Z,88.49
2022-12-18T17:45:17.141Z,88.55
2022-12-18T17:47:45.218Z,88.49
2022-12-18T17:50:13.343Z,88.40
2022-12-18T17:52:42.814Z,88.37
2022-12-18T17:55:11.368Z,88.36
2022-12-18T17:57:39.519Z,88.42
2022-12-18T18:00:09.659Z,88.35
2022-12-18T18:02:40.224Z,88.27
2022-12-18T18:05:10.009Z,88.43
2022-12-18T18:07:39.653Z,88.37
2022-12-18T18:10:10.047Z,88.46
2022-12-18T18:12:55.661Z,88.34
2022-12-18T18:15:23.893Z,88.45
2022-12-18T18:17:52.233Z,88.51
2022-12-18T18:20:22.698Z,88.45
2022-12-18T18:22:51.008Z,88.48
2022-12-18T18:25:20.465Z,88.40
2022-12-18T18:27:48.875Z,88.53
2022-12-18T18:30:17.110Z,88.61
2022-12-18T18:32:46.819Z,88.75
2022-12-18T18:35:37.493Z,88.52
2022-12-18T18:38:04.407Z,88.70
2022-12-18T18:40:33.876Z,88.91
2022-12-18T18:43:02.014Z,88.63
2022-12-18T18:45:32.408Z,88.61
2022-12-18T18:48:00.480Z,88.64
2022-12-18T18:50:28.548Z,88.62
2022-12-18T18:52:56.847Z,88.60
2022-12-18T18:55:25.729Z,88.86
2022-12-18T18:57:55.362Z,88.76
2022-12-18T19:00:23.420Z,88.82
2022-12-18T19:02:53.999Z,88.58
2022-12-18T19:05:24.436Z,88.77
2022-12-18T19:07:52.555Z,88.75
2022-12-18T19:10:20.620Z,88.58
2022-12-18T19:13:05.814Z,88.60
2022-12-18T19:15:36.037Z,88.63
2022-12-18T19:18:04.453Z,88.59
2022-12-18T19:20:32.819Z,88.65
2022-12-18T19:23:00.884Z,88.61
2022-12-18T19:25:38.395Z,88.54
2022-12-18T19:28:14.402Z,88.41
2022-12-18T19:30:57.617Z,88.58
2022-12-18T19:33:44.853Z,88.51
2022-12-18T19:36:15.894Z,88.50
2022-12-18T19:38:45.542Z,88.60
2022-12-18T19:41:14.800Z,88.90
2022-12-18T19:43:43.194Z,88.50
2022-12-18T19:46:15.174Z,88.44
2022-12-18T19:48:44.243Z,88.42
2022-12-18T19:51:15.085Z,88.37
2022-12-18T19:53:43.311Z,88.44
2022-12-18T19:56:14.889Z,88.25
2022-12-18T19:58:43.680Z,88.13
2022-12-18T20:01:14.146Z,88.26
2022-12-18T20:03:51.581Z,88.11
2022-12-18T20:06:25.633Z,88.00
2022-12-18T20:08:57.679Z,88.10
2022-12-18T20:11:29.375Z,88.20
2022-12-18T20:13:57.501Z,88.24
2022-12-18T20:16:27.002Z,87.94
2022-12-18T20:18:57.823Z,87.87
2022-12-18T20:21:26.617Z,88.01
2022-12-18T20:23:55.727Z,88.01
2022-12-18T20:26:23.953Z,88.08
2022-12-18T20:28:52.054Z,87.98
2022-12-18T20:31:20.519Z,87.88
2022-12-18T20:33:51.019Z,87.64
2022-12-18T20:36:24.647Z,87.75
2022-12-18T20:38:57.317Z,87.67
2022-12-18T20:41:36.064Z,87.58
2022-12-18T20:44:12.781Z,87.56
2022-12-18T20:46:50.953Z,87.40
2022-12-18T20:49:20.430Z,87.41
2022-12-18T20:51:51.349Z,87.28
2022-12-18T20:54:22.217Z,87.10
2022-12-18T20:56:50.656Z,86.99
2022-12-18T20:59:19.680Z,87.12
2022-12-18T21:01:48.853Z,87.14
2022-12-18T21:04:18.492Z,86.74
2022-12-18T21:06:53.070Z,86.85
2022-12-18T21:09:24.430Z,86.99
2022-12-18T21:12:10.385Z,86.87
2022-12-18T21:14:42.371Z,86.69
2022-12-18T21:17:10.560Z,86.81
2022-12-18T21:19:38.940Z,86.64
2022-12-18T21:22:08.395Z,86.68
2022-12-18T21:24:36.429Z,86.61
2022-12-18T21:27:04.548Z,86.67
2022-12-18T21:29:33.139Z,86.48
2022-12-18T21:32:01.817Z,86.71
2022-12-18T21:34:31.918Z,86.55
2022-12-18T21:37:01.249Z,86.39
2022-12-18T21:39:31.542Z,86.63
2022-12-18T21:42:17.449Z,86.62
2022-12-18T21:44:47.998Z,86.74
2022-12-18T21:47:22.611Z,86.21
2022-12-18T21:49:52.583Z,86.70
2022-12-18T21:52:21.630Z,86.79
2022-12-18T21:55:08.334Z,86.56
2022-12-18T21:57:37.091Z,86.62
2022-12-18T22:00:06.258Z,86.60
2022-12-18T22:02:34.437Z,86.67
2022-12-18T22:05:02.647Z,86.79
2022-12-18T22:07:30.884Z,86.94
2022-12-18T22:09:59.306Z,86.94
2022-12-18T22:12:43.566Z,86.67
2022-12-18T22:15:20.280Z,86.84
2022-12-18T22:17:51.256Z,86.53
2022-12-18T22:20:25.761Z,86.75
2022-12-18T22:22:54.921Z,86.73
2022-12-18T22:25:22.990Z,86.53
2022-12-18T22:28:06.304Z,86.55
2022-12-18T22:30:34.395Z,86.61
2022-12-18T22:33:03.547Z,86.44
2022-12-18T22:35:31.727Z,86.60
2022-12-18T22:37:59.886Z,86.35
2022-12-18T22:40:29.072Z,86.10
2022-12-18T22:42:58.633Z,86.29
2022-12-18T22:45:27.873Z,86.32
2022-12-18T22:47:56.098Z,86.51
2022-12-18T22:50:24.164Z,86.35
2022-12-18T22:52:52.229Z,86.50
2022-12-18T22:55:20.441Z,86.40
2022-12-18T22:57:49.018Z,86.17
2022-12-18T23:00:23.796Z,86.22
2022-12-18T23:02:59.457Z,86.43
2022-12-18T23:05:29.966Z,86.55
2022-12-18T23:07:58.287Z,86.46
2022-12-18T23:10:27.357Z,86.22
2022-12-18T23:12:55.494Z,85.90
2022-12-18T23:15:27.731Z,86.34
2022-12-18T23:17:58.666Z,86.31
2022-12-18T23:20:27.033Z,86.58
2022-12-18T23:22:55.164Z,86.33
2022-12-18T23:25:23.271Z,86.28
2022-12-18T23:27:51.408Z,86.22
2022-12-18T23:30:19.474Z,86.32
2022-12-18T23:32:48.913Z,86.47
2022-12-18T23:35:17.551Z,86.29
2022-12-18T23:38:01.178Z,86.33
2022-12-18T23:40:29.899Z,86.41
2022-12-18T23:42:58.046Z,86.27
2022-12-18T23:45:26.103Z,86.57
2022-12-18T23:47:55.563Z,86.33
2022-12-18T23:50:28.989Z,86.29
2022-12-18T23:53:03.277Z,85.98
2022-12-18T23:55:38.467Z,86.34
2022-12-18T23:58:06.568Z,86.32
